Time;durP1;ratioP1;P1;durP2;ratioP2;P2;SDS_P1;SDS_P2;PMS_P1;PMS_P2;Temp;Humidity;BMP_temperature;BMP_pressure;BME280_temperature;BME280_humidity;BME280_pressure;Samples;Min_cycle;Max_cycle;Signal;HPM_P1;HPM_P2
2021/03/06 00:00:49;;;;;;;11.40;9.57;;;;;;;;;;5020485;28;20410;-79
2021/03/06 00:03:15;;;;;;;11.63;9.35;;;;;;;;;;5017874;28;20865;-79
2021/03/06 00:05:48;;;;;;;10.05;8.18;;;-1.60;99.90;;;;;;5019542;28;20424;-80
2021/03/06 00:08:39;;;;;;;11.10;8.73;;;-1.60;99.90;;;;;;5024722;28;20436;-82
2021/03/06 00:11:25;;;;;;;13.45;9.23;;;;;;;;;;5021812;28;20425;-81
2021/03/06 00:13:51;;;;;;;11.68;8.75;;;-1.90;99.90;;;;;;5020663;28;20411;-78
2021/03/06 00:16:16;;;;;;;10.87;8.80;;;-1.70;99.90;;;;;;5017697;28;20470;-79
2021/03/06 00:18:42;;;;;;;9.97;8.43;;;-1.70;99.90;;;;;;5020866;28;20448;-79
2021/03/06 00:21:07;;;;;;;11.30;8.75;;;-1.40;99.90;;;;;;5024531;28;20385;-79
2021/03/06 00:23:33;;;;;;;12.13;8.52;;;-1.70;99.90;;;;;;5021919;28;20386;-79
2021/03/06 00:25:58;;;;;;;11.15;8.23;;;-1.70;99.90;;;;;;5016599;28;20428;-79
2021/03/06 00:28:24;;;;;;;11.73;8.85;;;-1.80;99.90;;;;;;5020844;28;20472;-79
2021/03/06 00:30:49;;;;;;;11.57;8.53;;;-1.70;99.90;;;;;;5024626;28;20673;-79
2021/03/06 00:33:15;;;;;;;12.07;8.93;;;-2.00;99.90;;;;;;5020995;28;20939;-80
2021/03/06 00:35:41;;;;;;;11.37;8.93;;;-1.80;99.90;;;;;;5027912;28;20407;-79
2021/03/06 00:38:06;;;;;;;18.13;12.83;;;-1.90;99.90;;;;;;5021247;28;20418;-80
2021/03/06 00:40:32;;;;;;;18.13;13.17;;;-2.30;99.90;;;;;;5018250;28;20391;-80
2021/03/06 00:42:58;;;;;;;15.03;11.70;;;;;;;;;;5021434;28;20389;-79
2021/03/06 00:45:23;;;;;;;13.40;10.20;;;-1.90;99.90;;;;;;5024521;28;20412;-79
2021/03/06 00:47:49;;;;;;;15.97;11.40;;;;;;;;;;5021548;28;20383;-79
2021/03/06 00:50:25;;;;;;;14.55;11.55;;;;;;;;;;5020899;28;20850;-79
2021/03/06 00:52:51;;;;;;;14.57;10.80;;;;;;;;;;5022487;28;20436;-79
2021/03/06 00:55:17;;;;;;;14.65;11.15;;;;;;;;;;5026628;28;20377;-79
2021/03/06 00:57:43;;;;;;;13.77;10.37;;;;;;;;;;5014551;28;20917;-78
2021/03/06 01:00:09;;;;;;;13.50;10.38;;;;;;;;;;5027306;28;20439;-81
2021/03/06 01:02:35;;;;;;;13.30;10.25;;;;;;;;;;5013187;28;20384;-79
2021/03/06 01:05:01;;;;;;;12.30;9.27;;;;;;;;;;5012715;28;20751;-79
2021/03/06 01:07:27;;;;;;;13.02;9.20;;;;;;;;;;5023421;28;20387;-80
2021/03/06 01:09:54;;;;;;;11.73;8.82;;;;;;;;;;5020921;28;20399;-79
2021/03/06 01:12:19;;;;;;;10.73;8.05;;;;;;;;;;5021233;28;20385;-80
2021/03/06 01:14:45;;;;;;;11.45;8.90;;;;;;;;;;5027647;28;20435;-80
2021/03/06 01:17:11;;;;;;;12.27;9.10;;;;;;;;;;5025397;28;20383;-80
2021/03/06 01:19:37;;;;;;;10.52;8.55;;;;;;;;;;5020736;28;20389;-80
2021/03/06 01:22:04;;;;;;;11.43;8.80;;;;;;;;;;5021389;28;20404;-81
2021/03/06 01:24:30;;;;;;;10.02;8.13;;;;;;;;;;5014306;28;20381;-80
2021/03/06 01:26:56;;;;;;;12.35;8.55;;;;;;;;;;5023974;28;20395;-81
2021/03/06 01:29:21;;;;;;;11.83;8.23;;;;;;;;;;5015215;28;20558;-82
2021/03/06 01:31:47;;;;;;;9.75;8.07;;;;;;;;;;5023263;28;20853;-81
2021/03/06 01:34:13;;;;;;;9.43;8.10;;;;;;;;;;5016038;28;20404;-80
2021/03/06 01:36:39;;;;;;;11.13;9.13;;;;;;;;;;5024874;28;20383;-77
2021/03/06 01:39:05;;;;;;;11.77;9.35;;;;;;;;;;5019532;28;20371;-78
2021/03/06 01:41:31;;;;;;;11.85;9.20;;;;;;;;;;5021265;28;20416;-77
2021/03/06 01:43:57;;;;;;;11.85;8.88;;;;;;;;;;5027029;28;20883;-79
2021/03/06 01:46:23;;;;;;;11.13;9.37;;;-2.20;99.90;;;;;;5025694;28;20407;-79
2021/03/06 01:48:49;;;;;;;11.95;9.60;;;;;;;;;;5020693;28;20861;-78
2021/03/06 01:51:15;;;;;;;13.20;9.73;;;;;;;;;;5020552;28;20875;-77
2021/03/06 01:53:41;;;;;;;10.80;9.18;;;-2.30;99.90;;;;;;5026082;28;21033;-78
2021/03/06 01:56:07;;;;;;;12.73;9.43;;;-2.00;99.90;;;;;;5025180;28;20407;-78
2021/03/06 01:58:33;;;;;;;12.88;9.75;;;-2.10;99.90;;;;;;5018998;28;20484;-79
2021/03/06 02:00:59;;;;;;;12.27;9.40;;;;;;;;;;5020206;28;20388;-79
2021/03/06 02:03:24;;;;;;;11.70;9.55;;;-2.00;99.90;;;;;;5025929;28;20393;-79
2021/03/06 02:05:52;;;;;;;12.20;10.03;;;;;;;;;;5024600;28;20420;-78
2021/03/06 02:08:19;;;;;;;11.75;8.82;;;;;;;;;;5036851;28;20379;-78
2021/03/06 02:10:45;;;;;;;11.63;9.30;;;;;;;;;;5036214;28;20383;-78
2021/03/06 02:13:17;;;;;;;12.60;9.48;;;;;;;;;;5037287;28;20407;-78
2021/03/06 02:15:46;;;;;;;11.85;9.30;;;;;;;;;;5037735;28;20402;-78
2021/03/06 02:18:22;;;;;;;12.10;9.20;;;;;;;;;;5036757;28;20399;-78
2021/03/06 02:20:52;;;;;;;11.82;9.57;;;;;;;;;;5036222;28;21079;-78
2021/03/06 02:23:33;;;;;;;10.65;8.75;;;;;;;;;;5021486;28;20393;-79
2021/03/06 02:26:09;;;;;;;11.45;9.50;;;;;;;;;;5021483;28;20395;-78
2021/03/06 02:28:58;;;;;;;12.05;9.43;;;-2.20;99.90;;;;;;5019813;28;20393;-79
2021/03/06 02:31:26;;;;;;;12.87;10.00;;;;;;;;;;5008513;28;20492;-78
2021/03/06 02:34:01;;;;;;;11.85;9.70;;;;;;;;;;5019958;28;20409;-79
2021/03/06 02:36:28;;;;;;;12.95;10.23;;;;;;;;;;5020183;28;20472;-78
2021/03/06 02:38:55;;;;;;;14.13;10.17;;;;;;;;;;5017885;28;20416;-78
2021/03/06 02:41:24;;;;;;;13.00;9.70;;;;;;;;;;5023359;28;20420;-79
2021/03/06 02:43:52;;;;;;;12.68;9.60;;;;;;;;;;5024249;28;20381;-78
2021/03/06 02:46:21;;;;;;;13.63;9.55;;;;;;;;;;5025387;28;20693;-78
2021/03/06 02:52:19;;;;;;;12.07;9.63;;;-2.60;99.90;;;;;;5020514;28;20395;-79
2021/03/06 02:55:11;;;;;;;12.98;9.70;;;;;;;;;;5038430;28;20445;-79
2021/03/06 02:58:08;;;;;;;11.77;9.60;;;-2.80;99.90;;;;;;5016662;28;20403;-79
2021/03/06 03:01:01;;;;;;;13.75;9.32;;;;;;;;;;5020061;28;20389;-79
2021/03/06 03:04:05;;;;;;;11.55;9.40;;;-2.70;99.90;;;;;;5039064;28;20406;-78
2021/03/06 03:06:53;;;;;;;12.32;9.65;;;;;;;;;;5025063;28;20885;-79
2021/03/06 03:10:35;;;;;;;11.80;9.88;;;-3.10;99.90;;;;;;5036399;28;20392;-78
2021/03/06 03:14:00;;;;;;;12.35;9.15;;;-2.80;99.90;;;;;;5019937;28;20412;-78
2021/03/06 03:17:32;;;;;;;16.27;10.70;;;-2.80;99.90;;;;;;5022106;28;20800;-78
2021/03/06 03:20:03;;;;;;;11.93;9.88;;;;;;;;;;4960182;28;20451;-77
2021/03/06 03:22:36;;;;;;;12.70;10.27;;;;;;;;;;5017290;28;20384;-77
2021/03/06 03:25:03;;;;;;;14.60;10.68;;;;;;;;;;5007738;28;20391;-77
2021/03/06 03:27:29;;;;;;;14.35;10.73;;;;;;;;;;5026920;28;20375;-77
2021/03/06 03:29:56;;;;;;;11.90;9.80;;;;;;;;;;5034186;28;20383;-76
2021/03/06 03:32:23;;;;;;;13.73;9.15;;;;;;;;;;5035508;28;20391;-77
2021/03/06 03:34:50;;;;;;;12.38;9.40;;;-3.50;99.90;;;;;;5024278;28;20416;-76
2021/03/06 03:37:16;;;;;;;11.77;9.40;;;;;;;;;;5013624;28;20389;-77
2021/03/06 03:39:45;;;;;;;11.13;9.17;;;;;;;;;;5017903;28;20493;-78
2021/03/06 03:42:11;;;;;;;12.18;9.40;;;;;;;;;;4992791;28;20406;-78
2021/03/06 03:44:39;;;;;;;12.27;9.50;;;;;;;;;;5038443;28;20391;-77
2021/03/06 03:47:13;;;;;;;13.50;9.67;;;-2.60;99.90;;;;;;5039061;28;20411;-79
2021/03/06 03:50:32;;;;;;;14.48;10.05;;;-2.90;99.90;;;;;;5024224;28;20780;-78
2021/03/06 03:53:21;;;;;;;12.18;8.80;;;-3.30;99.90;;;;;;5009231;28;20432;-79
2021/03/06 03:55:47;;;;;;;12.07;8.85;;;;;;;;;;5003413;28;20400;-78
2021/03/06 03:58:14;;;;;;;12.82;9.98;;;;;;;;;;5017307;28;20390;-77
2021/03/06 04:00:41;;;;;;;11.75;9.32;;;;;;;;;;4998902;28;20428;-78
2021/03/06 04:03:09;;;;;;;12.07;9.73;;;;;;;;;;4998682;28;20405;-78
2021/03/06 04:05:35;;;;;;;13.20;9.90;;;;;;;;;;5016975;28;20794;-78
2021/03/06 04:08:02;;;;;;;14.32;9.98;;;;;;;;;;5029764;28;20385;-76
2021/03/06 04:10:28;;;;;;;13.67;9.47;;;;;;;;;;5013208;28;20391;-76
2021/03/06 04:12:57;;;;;;;13.63;10.13;;;-0.50;99.90;;;;;;5015284;28;20480;-77
2021/03/06 04:15:24;;;;;;;13.15;10.07;;;;;;;;;;4997674;28;20414;-77
2021/03/06 04:17:51;;;;;;;13.35;9.70;;;;;;;;;;4999358;28;20389;-77
2021/03/06 04:20:26;;;;;;;11.75;9.32;;;;;;;;;;5029802;28;20400;-76
2021/03/06 04:23:56;;;;;;;14.18;10.60;;;-3.20;99.90;;;;;;5029384;28;20674;-77
2021/03/06 04:27:00;;;;;;;14.27;9.75;;;;;;;;;;5021985;28;20881;-77
2021/03/06 04:29:48;;;;;;;14.50;10.20;;;-3.60;99.90;;;;;;5036628;28;20387;-77
2021/03/06 04:32:14;;;;;;;16.27;10.63;;;;;;;;;;5023141;28;20408;-77
2021/03/06 04:35:20;;;;;;;12.63;9.37;;;-3.50;99.90;;;;;;5025826;28;20801;-78
2021/03/06 04:37:50;;;;;;;12.73;9.18;;;;;;;;;;5034719;28;20396;-78
2021/03/06 04:40:47;;;;;;;14.13;9.50;;;-3.10;99.90;;;;;;5029914;28;20400;-78
2021/03/06 04:43:21;;;;;;;14.57;10.85;;;;;;;;;;5011631;28;20395;-77
2021/03/06 04:45:47;;;;;;;14.65;11.07;;;;;;;;;;4996878;28;20443;-77
2021/03/06 04:48:13;;;;;;;14.20;10.52;;;;;;;;;;5025274;28;20438;-77
2021/03/06 04:51:02;;;;;;;13.60;10.20;;;;;;;;;;5002131;28;20381;-77
2021/03/06 04:53:28;;;;;;;14.15;9.85;;;;;;;;;;5014256;28;20424;-77
2021/03/06 04:55:55;;;;;;;13.63;9.48;;;;;;;;;;5012446;28;20431;-77
2021/03/06 04:58:22;;;;;;;14.63;9.88;;;;;;;;;;5013239;28;20385;-77
2021/03/06 05:00:48;;;;;;;11.55;9.05;;;;;;;;;;5011921;28;20388;-77
2021/03/06 05:03:15;;;;;;;12.38;9.15;;;;;;;;;;5012920;28;20531;-77
2021/03/06 05:05:41;;;;;;;14.52;9.60;;;;;;;;;;4995486;28;20393;-77
2021/03/06 05:08:07;;;;;;;12.95;10.00;;;;;;;;;;5012699;28;20902;-77
2021/03/06 05:10:34;;;;;;;12.93;9.73;;;;;;;;;;5022190;28;20399;-76
2021/03/06 05:13:00;;;;;;;13.90;9.93;;;;;;;;;;5015043;28;20395;-77
2021/03/06 05:15:28;;;;;;;16.73;10.33;;;;;;;;;;5031621;28;20386;-77
2021/03/06 05:17:54;;;;;;;13.70;9.57;;;;;;;;;;5018534;28;20382;-77
2021/03/06 05:20:20;;;;;;;13.68;10.43;;;;;;;;;;5021105;28;20385;-77
2021/03/06 05:22:48;;;;;;;13.60;10.90;;;;;;;;;;5034441;28;20391;-77
2021/03/06 05:25:15;;;;;;;14.88;10.85;;;;;;;;;;5031508;28;20463;-77
2021/03/06 05:27:41;;;;;;;14.68;10.85;;;;;;;;;;5014884;28;20908;-76
2021/03/06 05:30:07;;;;;;;15.35;10.27;;;;;;;;;;5030987;28;20398;-77
2021/03/06 05:32:34;;;;;;;15.45;10.55;;;;;;;;;;5030290;28;20383;-76
2021/03/06 05:35:00;;;;;;;14.55;10.82;;;;;;;;;;5019489;28;20408;-77
2021/03/06 05:37:26;;;;;;;15.52;10.95;;;;;;;;;;5024445;28;20389;-78
2021/03/06 05:39:55;;;;;;;15.13;10.93;;;;;;;;;;5023155;28;20422;-78
2021/03/06 05:42:23;;;;;;;14.05;10.48;;;;;;;;;;5032308;28;20471;-79
2021/03/06 05:44:53;;;;;;;13.02;10.00;;;;;;;;;;5038507;28;20411;-78
2021/03/06 05:47:28;;;;;;;13.55;9.88;;;;;;;;;;5019720;28;20400;-77
2021/03/06 05:49:55;;;;;;;14.23;10.13;;;;;;;;;;5019136;28;20856;-78
2021/03/06 05:52:41;;;;;;;14.70;11.20;;;;;;;;;;4997263;28;20399;-78
2021/03/06 05:55:12;;;;;;;14.73;11.27;;;;;;;;;;5022693;28;20485;-78
2021/03/06 05:57:39;;;;;;;15.70;10.80;;;;;;;;;;5023546;28;20462;-77
2021/03/06 06:04:20;;;;;;;22.45;16.30;;;;;;;;;;4957812;28;20399;-80
2021/03/06 06:07:31;;;;;;;16.35;11.77;;;;;;;;;;4940314;28;20392;-79
2021/03/06 06:13:37;;;;;;;13.27;10.00;;;;;;;;;;4986496;28;20388;-78
2021/03/06 06:16:27;;;;;;;12.15;9.70;;;;;;;;;;5011830;28;20741;-78
2021/03/06 06:19:45;;;;;;;12.77;9.90;;;;;;;;;;4974219;28;20492;-78
2021/03/06 06:23:01;;;;;;;12.60;9.75;;;;;;;;;;5006536;28;20519;-80
2021/03/06 06:26:08;;;;;;;13.88;10.05;;;;;;;;;;5010537;28;20417;-80
2021/03/06 06:39:34;;;;;;;12.90;10.10;;;;;;;;;;4914016;29;20522;-80
2021/03/06 06:46:17;;;;;;;14.80;9.97;;;;;;;;;;4875791;29;20540;-80
2021/03/06 06:52:43;;;;;;;14.18;9.75;;;;;;;;;;4884743;29;20384;-80
2021/03/06 07:02:58;;;;;;;19.90;14.05;;;-3.00;99.90;;;;;;4859635;29;20447;-80
2021/03/06 07:19:30;;;;;;;14.70;9.90;;;;;;;;;;4851099;29;20942;-80
2021/03/06 07:22:47;;;;;;;13.68;10.02;;;;;;;;;;4926554;29;20491;-80
2021/03/06 07:25:49;;;;;;;21.90;15.55;;;;;;;;;;4928137;29;20411;-80
2021/03/06 07:45:30;;;;;;;17.55;13.10;;;;;;;;;;4909260;29;20384;-80
2021/03/06 07:52:20;;;;;;;16.52;12.18;;;-2.20;99.90;;;;;;4895351;29;20461;-80
2021/03/06 07:55:43;;;;;;;14.38;11.10;;;-1.40;99.90;;;;;;4858066;29;20799;-79
2021/03/06 08:01:58;;;;;;;16.63;11.40;;;;;;;;;;4976351;28;20787;-80
2021/03/06 08:05:28;;;;;;;16.63;11.88;;;-1.70;99.90;;;;;;4989321;28;20403;-80
2021/03/06 08:08:15;;;;;;;16.17;11.65;;;;;;;;;;4995006;28;20398;-80
2021/03/06 08:11:12;;;;;;;16.20;11.98;;;;;;;;;;5005182;28;20480;-79
2021/03/06 08:14:15;;;;;;;16.83;12.23;;;;;;;;;;4988692;28;21341;-80
2021/03/06 08:17:01;;;;;;;16.48;12.80;;;;;;;;;;5034893;28;20792;-79
2021/03/06 08:20:07;;;;;;;15.93;11.43;;;;;;;;;;5036286;28;20395;-79
2021/03/06 08:22:38;;;;;;;17.13;11.68;;;;;;;;;;5033842;28;20429;-80
2021/03/06 08:25:31;;;;;;;16.10;12.02;;;;;;;;;;5025473;28;20400;-80
2021/03/06 08:28:33;;;;;;;15.60;11.35;;;;;;;;;;5015207;28;20397;-80
2021/03/06 08:31:22;;;;;;;14.48;10.38;;;;;;;;;;4959442;28;20778;-79
2021/03/06 08:46:59;;;;;;;13.05;9.88;;;;;;;;;;5021254;28;20405;-80
2021/03/06 08:50:07;;;;;;;12.45;9.50;;;;;;;;;;5016601;28;20993;-80
2021/03/06 08:53:00;;;;;;;12.88;9.90;;;;;;;;;;5015864;28;20392;-80
2021/03/06 08:56:11;;;;;;;13.98;10.05;;;;;;;;;;5017016;28;20500;-80
2021/03/06 08:59:00;;;;;;;13.48;10.82;;;;;;;;;;5013101;28;20420;-80
2021/03/06 09:01:47;;;;;;;18.10;11.88;;;0.40;99.90;;;;;;5034230;28;20476;-80
2021/03/06 09:04:36;;;;;;;16.75;11.40;;;;;;;;;;5021348;28;20546;-79
2021/03/06 09:07:27;;;;;;;16.58;11.05;;;;;;;;;;5015602;28;20389;-79
2021/03/06 09:10:42;;;;;;;19.20;11.65;;;;;;;;;;5014839;28;20416;-80
2021/03/06 09:13:19;;;;;;;15.65;10.80;;;;;;;;;;5009901;28;20423;-80
2021/03/06 09:15:54;;;;;;;15.55;11.30;;;;;;;;;;5014372;28;20397;-80
2021/03/06 09:18:46;;;;;;;15.88;10.45;;;;;;;;;;5015512;28;20803;-80
2021/03/06 09:21:28;;;;;;;15.27;10.30;;;;;;;;;;5034829;28;20387;-80
2021/03/06 09:24:06;;;;;;;14.95;9.98;;;;;;;;;;5014775;28;20393;-80
2021/03/06 09:26:38;;;;;;;13.20;9.00;;;;;;;;;;4997855;28;20789;-80
2021/03/06 09:29:06;;;;;;;12.18;8.40;;;;;;;;;;5016148;28;20403;-80
2021/03/06 09:31:43;;;;;;;12.02;8.30;;;;;;;;;;5015812;28;20803;-81
2021/03/06 09:34:10;;;;;;;11.85;7.22;;;;;;;;;;5014758;28;20427;-81
2021/03/06 09:36:43;;;;;;;10.73;7.03;;;;;;;;;;5013471;28;20902;-81
2021/03/06 09:39:14;;;;;;;9.63;6.90;;;;;;;;;;5013399;28;20888;-81
2021/03/06 09:41:45;;;;;;;11.20;7.28;;;;;;;;;;5013619;28;20426;-80
2021/03/06 09:44:37;;;;;;;14.75;7.65;;;;;;;;;;5006152;28;20759;-80
2021/03/06 09:47:09;;;;;;;10.38;6.60;;;;;;;;;;5012350;28;20412;-80
2021/03/06 09:49:36;;;;;;;9.75;6.90;;;;;;;;;;5012923;28;20392;-81
2021/03/06 09:52:08;;;;;;;9.70;7.00;;;;;;;;;;5011931;28;20403;-81
2021/03/06 09:57:32;;;;;;;11.57;6.40;;;;;;;;;;5002442;28;20881;-80
2021/03/06 10:00:05;;;;;;;9.65;6.28;;;;;;;;;;5024700;28;21051;-80
2021/03/06 10:02:52;;;;;;;9.35;5.88;;;;;;;;;;5000931;28;20406;-80
2021/03/06 10:05:27;;;;;;;9.30;5.57;;;;;;;;;;4999846;28;20377;-81
2021/03/06 10:07:56;;;;;;;9.53;6.03;;;;;;;;;;5014649;28;20540;-81
2021/03/06 10:10:25;;;;;;;6.68;5.00;;;2.30;99.90;;;;;;5023620;28;20817;-79
2021/03/06 10:12:57;;;;;;;7.35;5.28;;;;;;;;;;5000039;28;20449;-81
2021/03/06 10:15:31;;;;;;;7.10;5.30;;;;;;;;;;5014433;28;20458;-81
2021/03/06 10:18:17;;;;;;;7.18;5.00;;;;;;;;;;5000365;28;20394;-81
2021/03/06 10:21:08;;;;;;;7.18;4.55;;;;;;;;;;5019319;28;20392;-80
2021/03/06 10:23:38;;;;;;;6.43;4.78;;;;;;;;;;5011592;28;20391;-80
2021/03/06 10:26:20;;;;;;;6.15;4.40;;;;;;;;;;5016871;28;20957;-80
2021/03/06 10:28:49;;;;;;;6.33;4.53;;;;;;;;;;5011933;28;20480;-81
2021/03/06 10:31:34;;;;;;;10.63;5.05;;;;;;;;;;4999830;28;20412;-81
2021/03/06 10:34:24;;;;;;;8.93;4.55;;;;;;;;;;5013882;28;20404;-81
2021/03/06 10:37:08;;;;;;;6.35;4.22;;;;;;;;;;5012099;28;20426;-80
2021/03/06 10:39:35;;;;;;;5.90;4.20;;;;;;;;;;5011314;28;20390;-81
2021/03/06 10:42:05;;;;;;;6.32;4.25;;;;;;;;;;5022496;28;20388;-81
2021/03/06 10:44:45;;;;;;;6.13;4.43;;;;;;;;;;5031591;28;20480;-81
2021/03/06 10:47:36;;;;;;;6.28;4.30;;;;;;;;;;5013054;28;20444;-81
2021/03/06 10:50:20;;;;;;;5.22;4.28;;;;;;;;;;5012613;28;20395;-81
2021/03/06 10:52:50;;;;;;;7.00;4.25;;;;;;;;;;5005605;28;20432;-81
2021/03/06 10:55:32;;;;;;;5.97;4.10;;;;;;;;;;5018891;28;20932;-81
2021/03/06 10:58:00;;;;;;;6.00;4.10;;;;;;;;;;5009578;28;20946;-81
2021/03/06 11:00:48;;;;;;;6.63;4.28;;;;;;;;;;4991737;28;20413;-81
2021/03/06 11:03:15;;;;;;;7.18;4.53;;;;;;;;;;5008772;28;20381;-81
2021/03/06 11:05:43;;;;;;;6.45;4.35;;;;;;;;;;5012138;28;20415;-81
2021/03/06 11:08:21;;;;;;;7.83;4.50;;;;;;;;;;5025629;28;20466;-81
2021/03/06 11:10:52;;;;;;;6.20;4.30;;;;;;;;;;5024423;28;20441;-81
2021/03/06 11:13:19;;;;;;;5.82;4.40;;;;;;;;;;5011875;28;20377;-81
2021/03/06 11:15:56;;;;;;;5.82;4.45;;;;;;;;;;5023724;28;20390;-81
2021/03/06 11:18:25;;;;;;;6.17;4.27;;;;;;;;;;5008225;28;20383;-81
2021/03/06 11:20:51;;;;;;;8.05;4.50;;;;;;;;;;5015974;28;20393;-81
2021/03/06 11:23:28;;;;;;;6.47;4.43;;;;;;;;;;4987219;28;20390;-81
2021/03/06 11:25:56;;;;;;;7.60;4.65;;;;;;;;;;5020468;28;20446;-81
2021/03/06 11:28:30;;;;;;;5.70;4.40;;;;;;;;;;5012066;28;20461;-81
2021/03/06 11:31:03;;;;;;;5.03;3.90;;;;;;;;;;5010054;28;20430;-81
2021/03/06 11:33:35;;;;;;;5.82;4.28;;;;;;;;;;5012537;28;20507;-81
2021/03/06 11:36:04;;;;;;;5.85;4.15;;;;;;;;;;5011463;28;20451;-81
2021/03/06 11:38:33;;;;;;;5.13;3.95;;;;;;;;;;5008613;28;20452;-81
2021/03/06 11:41:01;;;;;;;6.50;4.10;;;;;;;;;;5024408;28;20424;-81
2021/03/06 11:43:31;;;;;;;5.63;4.00;;;;;;;;;;5011508;28;20985;-81
2021/03/06 11:46:01;;;;;;;5.40;4.15;;;;;;;;;;5013047;28;20783;-81
2021/03/06 11:48:53;;;;;;;5.85;4.10;;;;;;;;;;5013114;28;20400;-81
2021/03/06 11:51:29;;;;;;;5.82;4.10;;;;;;;;;;5011238;28;20388;-81
2021/03/06 11:56:41;;;;;;;4.82;3.55;;;;;;;;;;5015529;28;20449;-81
2021/03/06 11:59:13;;;;;;;4.68;3.55;;;;;;;;;;5005307;28;20396;-80
2021/03/06 12:01:45;;;;;;;7.28;3.95;;;;;;;;;;5023824;28;20438;-81
2021/03/06 12:04:30;;;;;;;5.87;3.60;;;4.20;99.90;;;;;;5011539;28;20400;-80
2021/03/06 12:07:08;;;;;;;6.13;4.10;;;;;;;;;;4994983;28;20493;-80
2021/03/06 12:09:45;;;;;;;5.57;3.60;;;;;;;;;;4997339;28;20489;-81
2021/03/06 12:12:13;;;;;;;6.20;3.72;;;;;;;;;;5032559;28;20462;-82
2021/03/06 12:14:54;;;;;;;4.47;3.40;;;;;;;;;;5026894;28;20470;-82
2021/03/06 12:17:32;;;;;;;4.97;3.60;;;;;;;;;;5011709;28;20392;-81
2021/03/06 12:20:03;;;;;;;4.65;3.80;;;;;;;;;;4999804;28;20393;-82
2021/03/06 12:22:33;;;;;;;4.28;3.30;;;;;;;;;;5011646;28;20393;-82
2021/03/06 12:25:02;;;;;;;5.90;4.07;;;;;;;;;;5013024;28;20415;-82
2021/03/06 12:27:45;;;;;;;6.32;3.67;;;;;;;;;;5016317;28;20376;-82
2021/03/06 12:30:21;;;;;;;3.70;2.92;;;;;;;;;;5018666;28;20400;-82
2021/03/06 12:32:50;;;;;;;4.57;3.20;;;;;;;;;;5011584;28;20420;-82
2021/03/06 12:35:22;;;;;;;3.00;2.55;;;;;;;;;;5011299;28;20764;-82
2021/03/06 12:38:28;;;;;;;5.17;3.20;;;11.30;68.40;;;;;;5012537;28;20373;-82
2021/03/06 12:40:59;;;;;;;3.03;2.50;;;;;;;;;;5017839;28;20394;-82
2021/03/06 12:43:25;;;;;;;4.07;2.97;;;;;;;;;;5031627;28;20474;-82
2021/03/06 12:45:54;;;;;;;3.97;2.78;;;;;;;;;;5027602;28;20393;-81
2021/03/06 12:48:24;;;;;;;4.65;3.05;;;;;;;;;;4999016;28;20526;-81
2021/03/06 12:50:52;;;;;;;4.35;2.80;;;;;;;;;;5015013;28;20391;-81
2021/03/06 12:53:21;;;;;;;4.13;2.83;;;;;;;;;;5014072;28;20483;-79
2021/03/06 12:55:57;;;;;;;3.83;2.80;;;;;;;;;;5014503;28;20392;-79
2021/03/06 12:58:27;;;;;;;3.90;3.00;;;;;;;;;;5028158;28;20882;-79
2021/03/06 13:00:56;;;;;;;2.95;2.40;;;;;;;;;;5015553;28;20377;-79
2021/03/06 13:03:23;;;;;;;3.88;2.40;;;12.50;62.80;;;;;;5014095;28;20476;-79
2021/03/06 13:05:50;;;;;;;4.53;2.78;;;;;;;;;;4998322;28;20450;-79
2021/03/06 13:08:20;;;;;;;4.10;2.65;;;;;;;;;;5014689;28;20381;-79
2021/03/06 13:10:50;;;;;;;3.35;2.40;;;;;;;;;;5016058;28;20389;-79
2021/03/06 13:13:28;;;;;;;3.85;2.60;;;;;;;;;;5014813;28;20431;-79
2021/03/06 13:16:00;;;;;;;4.35;3.10;;;;;;;;;;5014179;28;20388;-79
2021/03/06 13:18:27;;;;;;;2.83;2.50;;;;;;;;;;5014562;28;20393;-79
2021/03/06 13:20:59;;;;;;;4.35;2.70;;;;;;;;;;5015812;28;20435;-79
2021/03/06 13:23:25;;;;;;;3.03;2.50;;;;;;;;;;4998046;28;20393;-79
2021/03/06 13:25:52;;;;;;;3.47;2.28;;;;;;;;;;5017824;28;20879;-79
2021/03/06 13:28:26;;;;;;;3.65;2.50;;;;;;;;;;5024349;28;20530;-79
2021/03/06 13:31:04;;;;;;;3.70;2.60;;;;;;;;;;5014088;28;20385;-79
2021/03/06 13:33:31;;;;;;;3.38;2.78;;;;;;;;;;5025345;28;20379;-80
2021/03/06 13:36:03;;;;;;;3.50;2.80;;;;;;;;;;5019920;28;20387;-80
2021/03/06 13:38:30;;;;;;;3.33;2.53;;;;;;;;;;5034693;28;20380;-79
2021/03/06 13:40:59;;;;;;;5.32;3.67;;;;;;;;;;5017399;28;20482;-79
2021/03/06 13:43:25;;;;;;;3.92;2.80;;;;;;;;;;5014676;28;20378;-80
2021/03/06 13:45:56;;;;;;;3.58;2.50;;;;;;;;;;5013464;28;20767;-80
2021/03/06 13:48:30;;;;;;;3.53;2.60;;;;;;;;;;5016094;28;20661;-79
2021/03/06 13:51:00;;;;;;;4.78;3.00;;;;;;;;;;5032613;28;20380;-79
2021/03/06 13:53:28;;;;;;;3.15;2.75;;;;;;;;;;5019508;28;20393;-79
2021/03/06 13:55:55;;;;;;;4.10;2.60;;;;;;;;;;5025364;28;20376;-79
2021/03/06 13:58:21;;;;;;;3.50;2.67;;;;;;;;;;5012886;28;20385;-79
2021/03/06 14:00:48;;;;;;;3.60;3.08;;;;;;;;;;5021717;28;20896;-79
2021/03/06 14:03:18;;;;;;;4.28;3.00;;;;;;;;;;5017778;28;20400;-79
2021/03/06 14:05:44;;;;;;;4.88;3.03;;;;;;;;;;5023260;28;20785;-79
2021/03/06 14:08:59;;;;;;;4.85;3.67;;;18.10;48.40;;;;;;5016861;28;20413;-79
2021/03/06 14:11:32;;;;;;;5.90;3.60;;;;;;;;;;4995200;28;21129;-79
2021/03/06 14:14:43;;;;;;;5.05;3.65;;;18.30;49.00;;;;;;5017386;28;20447;-79
2021/03/06 14:17:18;;;;;;;4.53;3.75;;;;;;;;;;5002126;28;20396;-79
2021/03/06 14:19:48;;;;;;;5.30;3.80;;;;;;;;;;5012509;28;20384;-79
2021/03/06 14:22:17;;;;;;;4.18;3.63;;;;;;;;;;4978646;28;20392;-79
2021/03/06 14:24:59;;;;;;;5.45;3.67;;;19.00;49.00;;;;;;5019305;28;20411;-79
2021/03/06 14:27:49;;;;;;;7.05;5.20;;;19.60;48.00;;;;;;4979509;28;20405;-79
2021/03/06 14:33:32;;;;;;;6.68;4.93;;;;;;;;;;5017211;28;20418;-82
2021/03/06 14:43:51;;;;;;;11.77;6.20;;;16.40;50.60;;;;;;5000510;28;20387;-78
2021/03/06 15:03:19;;;;;;;7.15;5.63;;;;;;;;;;4983390;28;20408;-79
2021/03/06 15:06:06;;;;;;;8.73;6.15;;;;;;;;;;4971817;28;20400;-80
2021/03/06 15:08:50;;;;;;;7.97;5.80;;;;;;;;;;5004590;28;20383;-80
2021/03/06 15:11:24;;;;;;;8.00;5.63;;;;;;;;;;5031529;28;20469;-79
2021/03/06 15:14:08;;;;;;;8.60;5.80;;;;;;;;;;5032070;28;20463;-80
2021/03/06 15:17:01;;;;;;;7.75;5.80;;;;;;;;;;5013332;28;20394;-79
2021/03/06 15:23:47;;;;;;;7.65;6.10;;;8.50;76.10;;;;;;4971043;28;20443;-79
2021/03/06 15:33:30;;;;;;;7.88;6.40;;;13.90;63.60;;;;;;4970893;28;20459;-80
2021/03/06 15:39:29;;;;;;;7.40;5.50;;;15.60;53.40;;;;;;4958023;28;20507;-78
2021/03/06 15:42:36;;;;;;;8.43;5.72;;;;;;;;;;4976049;28;20407;-78
2021/03/06 15:48:41;;;;;;;7.10;5.60;;;;;;;;;;4931815;29;20415;-78
2021/03/06 15:58:13;;;;;;;6.80;5.50;;;;;;;;;;4921100;29;20450;-79
2021/03/06 16:01:24;;;;;;;6.72;5.03;;;;;;;;;;4928929;29;20394;-78
2021/03/06 16:14:29;;;;;;;7.35;4.95;;;16.30;49.40;;;;;;4944681;29;20452;-79
2021/03/06 16:18:01;;;;;;;5.70;4.47;;;16.40;50.30;;;;;;4925203;29;20411;-78
2021/03/06 16:31:56;;;;;;;5.13;3.90;;;17.00;50.60;;;;;;4846149;29;20405;-79
2021/03/06 16:39:08;;;;;;;4.45;3.63;;;17.10;49.80;;;;;;4796723;29;20530;-79
2021/03/06 16:46:12;;;;;;;4.43;3.42;;;16.00;49.40;;;;;;4773456;30;20410;-79
2021/03/06 16:49:20;;;;;;;8.00;3.93;;;14.90;51.20;;;;;;4768791;30;20411;-79
2021/03/06 17:01:42;;;;;;;5.07;3.67;;;;;;;;;;4852331;29;21028;-79
2021/03/06 17:05:15;;;;;;;5.88;3.83;;;9.20;64.50;;;;;;4853839;29;20438;-79
2021/03/06 17:15:34;;;;;;;4.95;3.65;;;8.20;67.10;;;;;;4838771;29;20556;-79
2021/03/06 17:18:50;;;;;;;6.60;3.97;;;;;;;;;;4841445;29;20436;-79
2021/03/06 17:22:01;;;;;;;8.15;3.78;;;;;;;;;;4856089;29;20404;-79
2021/03/06 17:24:47;;;;;;;6.25;3.47;;;;;;;;;;4878466;29;20397;-79
2021/03/06 17:27:15;;;;;;;8.07;3.92;;;;;;;;;;4885830;29;20419;-79
2021/03/06 17:29:41;;;;;;;5.78;3.58;;;;;;;;;;4964164;28;20398;-79
2021/03/06 17:32:07;;;;;;;5.80;3.60;;;;;;;;;;5035112;28;20466;-79
2021/03/06 17:34:37;;;;;;;5.63;3.50;;;;;;;;;;5003762;28;20775;-79
2021/03/06 17:37:03;;;;;;;5.70;4.00;;;;;;;;;;5015976;28;20875;-79
2021/03/06 17:39:31;;;;;;;5.93;4.30;;;;;;;;;;5018113;28;20389;-79
2021/03/06 17:41:57;;;;;;;6.68;4.20;;;;;;;;;;5018826;28;20874;-78
2021/03/06 17:44:25;;;;;;;5.70;4.18;;;;;;;;;;5017400;28;20400;-78
2021/03/06 17:46:52;;;;;;;6.20;4.60;;;;;;;;;;5016565;28;20385;-79
2021/03/06 17:49:20;;;;;;;7.47;4.78;;;;;;;;;;5016132;28;20388;-79
2021/03/06 17:51:46;;;;;;;7.70;4.87;;;;;;;;;;5016062;28;20381;-79
2021/03/06 17:54:13;;;;;;;9.23;5.18;;;;;;;;;;5016293;28;20408;-79
2021/03/06 17:56:42;;;;;;;8.60;5.43;;;;;;;;;;5015530;28;20401;-78
2021/03/06 17:59:08;;;;;;;8.85;5.22;;;;;;;;;;5017291;28;20388;-79
2021/03/06 18:01:35;;;;;;;6.45;5.10;;;;;;;;;;5029093;28;20377;-79
2021/03/06 18:04:01;;;;;;;7.75;4.82;;;;;;;;;;5014516;28;20462;-79
2021/03/06 18:06:28;;;;;;;8.13;5.27;;;;;;;;;;5014534;28;20831;-80
2021/03/06 18:08:54;;;;;;;7.45;4.90;;;;;;;;;;5023537;28;20408;-79
2021/03/06 18:11:20;;;;;;;7.55;5.80;;;;;;;;;;5034840;28;20869;-80
2021/03/06 18:13:47;;;;;;;8.90;6.87;;;;;;;;;;5025301;28;20385;-80
2021/03/06 18:16:14;;;;;;;7.47;5.03;;;;;;;;;;5014965;28;20398;-80
2021/03/06 18:18:42;;;;;;;7.07;5.22;;;;;;;;;;5014861;28;20953;-80